Portada
METAR-TAF:

METAR-TAF

Aeroports :

Aeroport Internacional de Chubu

Nagoya, Japó

latitud: 34-51-30N, longitud: 136-48-19E, altitud: 5 m

Observació

L'informe es va fer fa 32 minuts, a les 12:30 UTC
Vent 30 kt del Nord-Oest
Temperatura 12°C
Humitat 67%
Pressió 1017 hPa
Visibilitat 10 km o més
Escasses núvols a una alçada de 3000 ft
Núvols disperses a una alçada de 7000 ft

METAR: RJGG 191230Z 31030KT 9999 FEW030 SCT070 12/06 Q1017 NOSIG

Hora: 22:02 (13:02 UTC)

Pronòstic

L'informe es va fer fa 1 hora i 57 minuts, a les 11:05 UTC
Pronòstic vàlid del 19 a les 12 UTC al 20 a les 18 UTC
Vent 22 kt del Nord-Oest
Visibilitat 10 km o més
Escasses núvols a una alçada de 3000 ft
Núvols disperses a una alçada de 4500 ft

TAF: RJGG 191105Z 1912/2018 31022KT 9999 FEW030 SCT045

Observacions i pronòstics meteorològics de més de 4000 aeroports (METAR i TAF).

Les estacions disponibles són els punts grocs i vermells al mapa.

Posi el ratolí al punt desitjat per veure el nom de l'estació.

Feu clic per veure les observacions i els pronòstics meteorològics.

Per canviar el mapa: feu clic els botons verds amb una creu de color negre per apropar; al botó verd amb un guió per allunyar la imatge; o en les fletxes verdes per a mapes adjacents.


METAR-TAF: